Brady, Montana
Current Conditions -  °F | °C
As of 10:53 PM on Saturday 25 Oct 2014 (Local Time) from KGTF Reporting Station
Broken Clouds Broken Clouds  
Wind Chill: 10°   Ceiling: 11000
Heat Index: 10°   Visibility: 10mi
Dew Point:   Wind: 13mph
Humidity: 68%   Direction: 280°W
Pressure: 29.62"   Gusts: 18mph
Location:  48.03°N, 111.85°W
Report Text: KGTF 260453Z 28011G16KT 230V310 10SM BKN110 10/04 A2962 RMK AO2 SLP032 T01000044
Loading
Personal Weather Stations






























Interactive Weather Map
Tropical Storm Tracking
New forecast layout! Learn more

10-Day Weather Forecast

Advertisements
Track Severe Weather on mobile